Lady Mary — WCY4834 — position and weather

sailwx.info

Track history (hours):
 
Tides and Currents Weather Stations Pressure Air Temp Water Temp Dewpoint Dewpoint Depression Visibility Wind Speed Wind Dir Waves Ship Positions

Lady Mary

Owner: BLACKMAN, JOHN H, SEATTLE, WA. More information available from US FCC via Universal Licensing System and Coast Guard Vessel Documentation Center.

Last reported at 2017-Jun-26 18:29 UTC. Time now 2017-Jun-26 18:57 UTC.
Position N 47°36' W 122°20'.

Length 26 m.

Type: Passenger vessel. MMSI: 367013060.

Date/timePositionNaut miles runAvg speedWind from/ knotsBaromVisibWave heightAir tempDewpointWater temp
2017-Jun-26 18:29N 47°36' W 122°20'0 0.0
2017-Jun-26 18:00N 47°36' W 122°20'0 0.0
2017-Jun-26 17:30N 47°36' W 122°20'0 0.0
2017-Jun-26 17:00N 47°36' W 122°20'0 0.0
2017-Jun-26 16:30N 47°36' W 122°20'0 0.0
2017-Jun-26 16:00N 47°36' W 122°20'2 4.0
2017-Jun-26 15:30N 47°37' W 122°23'4 7.2
2017-Jun-26 15:01N 47°40' W 122°26'2 3.0
2017-Jun-26 14:30N 47°40' W 122°24'3 0.5
2017-Jun-26 08:26N 47°38' W 122°20'0 0.0
2017-Jun-26 08:00N 47°38' W 122°20'0 0.0
2017-Jun-26 07:29N 47°38' W 122°20'0 0.0
2017-Jun-26 07:00N 47°38' W 122°20'0 0.0
2017-Jun-26 06:30N 47°38' W 122°20'0 0.1
2017-Jun-26 06:01N 47°38' W 122°20'0 0.0
2017-Jun-26 05:30N 47°38' W 122°20'2 3.3
2017-Jun-26 05:01N 47°39' W 122°19'3 6.6
2017-Jun-26 04:31N 47°38' W 122°15'2 3.9
2017-Jun-26 04:00N 47°36' W 122°13'3 5.0
2017-Jun-26 03:30N 47°38' W 122°16'3 5.2
2017-Jun-26 03:01N 47°39' W 122°19'2 3.2
2017-Jun-26 02:30N 47°38' W 122°20'0 0.0
2017-Jun-26 02:00N 47°38' W 122°20'0 0.0
2017-Jun-26 01:30N 47°38' W 122°20'0 0.0
2017-Jun-26 01:01N 47°38' W 122°20'0 0.0
2017-Jun-26 00:30N 47°38' W 122°20'0 0.0
2017-Jun-26 00:00N 47°38' W 122°20'1 2.1
2017-Jun-25 23:30N 47°39' W 122°21'1 2.7
2017-Jun-25 23:00N 47°39' W 122°19'4 7.2
2017-Jun-25 22:30N 47°40' W 122°14'1 1.7
2017-Jun-25 22:00N 47°40' W 122°13'3 6.6
2017-Jun-25 21:31N 47°38' W 122°15'1 2.6
2017-Jun-25 21:01N 47°39' W 122°15'2 4.2
2017-Jun-25 20:31N 47°40' W 122°13'0 0.0
2017-Jun-25 20:00N 47°40' W 122°13'0 0.0
2017-Jun-25 19:30N 47°40' W 122°13'0 0.0
2017-Jun-25 18:47N 47°40' W 122°13'0 0.0
2017-Jun-25 18:26N 47°40' W 122°13'0 0.0
2017-Jun-25 17:59N 47°40' W 122°13'0 0.0
2017-Jun-25 17:27N 47°40' W 122°13'0 0.0
2017-Jun-25 16:48N 47°40' W 122°13'0 0.0
2017-Jun-25 16:15N 47°40' W 122°13'0 0.0
2017-Jun-25 15:58N 47°40' W 122°13'0 0.0
2017-Jun-25 15:28N 47°40' W 122°13'0 0.0
2017-Jun-25 14:58N 47°40' W 122°13'0 0.0
2017-Jun-25 14:29N 47°40' W 122°13'0 0.0
2017-Jun-25 13:29N 47°40' W 122°13'0 0.0
2017-Jun-25 12:57N 47°40' W 122°13'0 0.0
2017-Jun-25 12:27N 47°40' W 122°13'0 0.0
2017-Jun-25 12:00N 47°40' W 122°13'0 0.0
2017-Jun-25 11:28N 47°40' W 122°13'0 0.0
2017-Jun-25 10:58N 47°40' W 122°13'0 0.0
2017-Jun-25 10:28N 47°40' W 122°13'0 0.0
2017-Jun-25 09:59N 47°40' W 122°13'0 0.0
2017-Jun-25 09:29N 47°40' W 122°13'0 0.0
2017-Jun-25 08:59N 47°40' W 122°13'0 0.0
2017-Jun-25 08:24N 47°40' W 122°13'0 0.0
2017-Jun-25 08:00N 47°40' W 122°13'0 0.0
2017-Jun-25 07:30N 47°40' W 122°13'0 0.0
2017-Jun-25 06:58N 47°40' W 122°13'0 0.0
2017-Jun-25 06:25N 47°40' W 122°13'0 0.0
2017-Jun-25 05:58N 47°40' W 122°13'0 0.0
2017-Jun-25 03:06N 47°40' W 122°13'0 0.0
2017-Jun-25 03:00N 47°40' W 122°13'0 0.0
2017-Jun-25 02:28N 47°40' W 122°13'0 0.0
2017-Jun-25 01:58N 47°40' W 122°13'0 0.0
2017-Jun-25 01:15N 47°40' W 122°13'0 0.0
2017-Jun-25 00:58N 47°40' W 122°13'0 0.0
2017-Jun-25 00:11N 47°40' W 122°13'0 0.0
2017-Jun-24 23:47N 47°40' W 122°13'0 0.0
2017-Jun-24 23:30N 47°40' W 122°13'0 0.0
2017-Jun-24 23:00N 47°40' W 122°13'0 0.0
2017-Jun-24 22:27N 47°40' W 122°13'0 0.5
2017-Jun-24 22:00N 47°40' W 122°13'4 7.5
2017-Jun-24 21:30N 47°37' W 122°14'2 4.2
2017-Jun-24 21:00N 47°39' W 122°14'2 0.7
2017-Jun-24 18:04N 47°40' W 122°13'0 0.0
2017-Jun-24 17:58N 47°40' W 122°13'0 0.0
2017-Jun-24 17:23N 47°40' W 122°13'0 0.0
2017-Jun-24 15:06N 47°40' W 122°13'0 0.1
2017-Jun-24 15:00N 47°40' W 122°13'0 0.0
2017-Jun-24 13:55N 47°40' W 122°13'0 0.0
2017-Jun-24 13:28N 47°40' W 122°13'0 0.0
2017-Jun-24 12:59N 47°40' W 122°13'0 0.0
2017-Jun-24 12:26N 47°40' W 122°13'0 0.0
2017-Jun-24 12:00N 47°40' W 122°13'0 0.0
2017-Jun-24 11:30N 47°40' W 122°13'0 0.0
2017-Jun-24 10:57N 47°40' W 122°13'0 0.0
2017-Jun-24 10:30N 47°40' W 122°13'0 0.0
2017-Jun-24 10:01N 47°40' W 122°13'0 0.0
2017-Jun-24 09:28N 47°40' W 122°13'0 0.0
2017-Jun-24 08:58N 47°40' W 122°13'0 0.0
2017-Jun-24 08:23N 47°40' W 122°13'0 0.0
2017-Jun-24 07:56N 47°40' W 122°13'0 0.0
2017-Jun-24 07:23N 47°40' W 122°13'0 0.0
2017-Jun-24 06:57N 47°40' W 122°13'0 0.0
2017-Jun-24 02:44N 47°40' W 122°13'0 0.0
2017-Jun-24 02:21N 47°40' W 122°13'0 0.2
2017-Jun-24 02:01N 47°40' W 122°13'0 0.1
2017-Jun-24 01:25N 47°40' W 122°13'0 0.0
2017-Jun-24 00:47N 47°40' W 122°13'0 0.0
2017-Jun-23 22:44N 47°40' W 122°13'0 0.0
2017-Jun-23 22:29N 47°40' W 122°13'1 3.0
2017-Jun-23 22:00N 47°41' W 122°15'3 5.2
2017-Jun-23 21:30N 47°38' W 122°15'2 3.4
2017-Jun-23 21:00N 47°36' W 122°14'3 5.3
2017-Jun-23 20:30N 47°39' W 122°13'1 2.7
2017-Jun-23 19:59N 47°40' W 122°13'0 0.0
2017-Jun-23 19:29N 47°40' W 122°13'0 0.0
2017-Jun-23 19:00N 47°40' W 122°13'0 0.0
2017-Jun-23 18:28N 47°40' W 122°13'0 0.0
2017-Jun-23 18:00N 47°40' W 122°13'0 0.0
2017-Jun-23 17:30N 47°40' W 122°13'0 0.0
2017-Jun-23 16:58N 47°40' W 122°13'0 0.0
2017-Jun-23 16:25N 47°40' W 122°13'0 0.0
2017-Jun-23 15:52N 47°40' W 122°13'0 0.0
2017-Jun-23 15:29N 47°40' W 122°13'0 0.0
2017-Jun-23 14:59N 47°40' W 122°13'0 0.0
2017-Jun-23 14:17N 47°40' W 122°13'0 0.0
2017-Jun-23 13:30N 47°40' W 122°13'0 0.0
2017-Jun-23 12:58N 47°40' W 122°13'0 0.0
2017-Jun-23 12:28N 47°40' W 122°13'0 0.0
2017-Jun-23 11:57N 47°40' W 122°13'0 0.0
2017-Jun-23 11:28N 47°40' W 122°13'0 0.0
2017-Jun-23 10:59N 47°40' W 122°13'0 0.0
2017-Jun-23 10:29N 47°40' W 122°13'0 0.0
2017-Jun-23 09:59N 47°40' W 122°13'0 0.0
2017-Jun-23 09:30N 47°40' W 122°13'0 0.0
2017-Jun-23 09:00N 47°40' W 122°13'0 0.0
2017-Jun-23 08:27N 47°40' W 122°13'0 0.0
2017-Jun-23 07:58N 47°40' W 122°13'0 0.0
2017-Jun-23 07:28N 47°40' W 122°13'0 0.0
2017-Jun-23 06:58N 47°40' W 122°13'0 0.0
2017-Jun-23 06:26N 47°40' W 122°13'0 0.0
2017-Jun-23 05:17N 47°40' W 122°13'0 0.3
2017-Jun-23 04:58N 47°40' W 122°13'4 8.0
2017-Jun-23 04:30N 47°39' W 122°18'2 4.0
2017-Jun-23 03:59N 47°39' W 122°21'0 0.0
2017-Jun-23 03:29N 47°39' W 122°21'1 1.7
2017-Jun-23 03:00N 47°39' W 122°20'3 6.8
2017-Jun-23 02:30N 47°39' W 122°15'2 3.1
2017-Jun-23 01:56N 47°40' W 122°13'1 1.2
2017-Jun-23 01:30N 47°40' W 122°13'4 7.8
2017-Jun-23 01:00N 47°39' W 122°19'1 1.5
2017-Jun-23 00:30N 47°39' W 122°20'3 4.9
2017-Jun-23 00:00N 47°38' W 122°16'2 3.9
2017-Jun-22 23:30N 47°37' W 122°14'2 4.7
2017-Jun-22 23:01N 47°39' W 122°13'2 3.1
2017-Jun-22 22:30N 47°40' W 122°13'0 0.0
2017-Jun-22 22:00N 47°40' W 122°13'0 0.0
2017-Jun-22 21:27N 47°40' W 122°13'0 0.0
2017-Jun-22 20:58N 47°40' W 122°13'0 0.0
2017-Jun-22 20:28N 47°40' W 122°13'0 0.0
2017-Jun-22 20:00N 47°40' W 122°13'0 0.0
2017-Jun-22 19:30N 47°40' W 122°13'0 0.0
2017-Jun-22 19:00N 47°40' W 122°13'0 0.0
2017-Jun-22 18:28N 47°40' W 122°13'0 0.0
2017-Jun-22 17:52N 47°40' W 122°13'0 0.0
2017-Jun-22 17:23N 47°40' W 122°13'0 0.0
2017-Jun-22 16:59N 47°40' W 122°13'0 0.0
2017-Jun-22 16:11N 47°40' W 122°13'0 0.0
2017-Jun-22 15:57N 47°40' W 122°13'0 0.0
2017-Jun-22 15:26N 47°40' W 122°13'0 0.0
2017-Jun-22 14:54N 47°40' W 122°13'0 0.0
2017-Jun-22 14:28N 47°40' W 122°13'0 0.0
2017-Jun-22 13:28N 47°40' W 122°13'0 0.0
2017-Jun-22 12:59N 47°40' W 122°13'0 0.0
2017-Jun-22 12:29N 47°40' W 122°13'0 0.0
2017-Jun-22 11:56N 47°40' W 122°13'0 0.0
2017-Jun-22 11:30N 47°40' W 122°13'0 0.0
2017-Jun-22 11:00N 47°40' W 122°13'0 0.0
2017-Jun-22 10:30N 47°40' W 122°13'0 0.0
2017-Jun-22 09:55N 47°40' W 122°13'0 0.0
2017-Jun-22 09:28N 47°40' W 122°13'0 0.0
2017-Jun-22 08:58N 47°40' W 122°13'0 0.0
2017-Jun-22 08:29N 47°40' W 122°13'0 0.0
2017-Jun-22 07:59N 47°40' W 122°13'0 0.0
2017-Jun-22 07:29N 47°40' W 122°13'0 0.0
2017-Jun-22 07:00N 47°40' W 122°13'0 0.0
2017-Jun-22 06:30N 47°40' W 122°13'0 0.0
2017-Jun-22 06:00N 47°40' W 122°13'0 0.0
2017-Jun-22 05:25N 47°40' W 122°13'0 0.0
2017-Jun-22 04:55N 47°40' W 122°13'0 0.0
2017-Jun-22 04:13N 47°40' W 122°13'0 0.0
2017-Jun-22 03:38N 47°40' W 122°13'0 0.0
2017-Jun-22 03:26N 47°40' W 122°13'0 0.0
2017-Jun-22 02:56N 47°40' W 122°13'0 0.0
2017-Jun-22 02:18N 47°40' W 122°13'0 0.0
2017-Jun-22 01:45N 47°40' W 122°13'0 0.0
2017-Jun-22 01:27N 47°40' W 122°13'0 0.1
2017-Jun-22 01:00N 47°40' W 122°13'4 7.5
2017-Jun-22 00:30N 47°39' W 122°18'1 2.2
2017-Jun-22 00:00N 47°39' W 122°19'3 6.3
2017-Jun-21 23:29N 47°37' W 122°16'1 1.4
2017-Jun-21 23:00N 47°37' W 122°15'3 5.8
2017-Jun-21 22:30N 47°40' W 122°13'1 1.7
2017-Jun-21 21:58N 47°40' W 122°13'0 0.0
2017-Jun-21 21:29N 47°40' W 122°13'0 0.0
2017-Jun-21 20:57N 47°40' W 122°13'0 0.0
2017-Jun-21 20:29N 47°40' W 122°13'0 0.0
2017-Jun-21 19:57N 47°40' W 122°13'0 0.0
2017-Jun-21 19:21N 47°40' W 122°13'0 0.0
2017-Jun-21 18:58N 47°40' W 122°13'0 0.0
2017-Jun-21 18:28N 47°40' W 122°13'0 0.0
2017-Jun-21 17:58N 47°40' W 122°13'0 0.0
2017-Jun-21 17:28N 47°40' W 122°13'0 0.0
2017-Jun-21 16:56N 47°40' W 122°13'0 0.0
2017-Jun-21 16:29N 47°40' W 122°13'0 0.0
2017-Jun-21 15:53N 47°40' W 122°13'0 0.0
2017-Jun-21 15:30N 47°40' W 122°13'0 0.0
2017-Jun-21 15:00N 47°40' W 122°13'0 0.0
2017-Jun-21 14:27N 47°40' W 122°13'0 0.0
2017-Jun-21 13:28N 47°40' W 122°13'0 0.0
2017-Jun-21 12:46N 47°40' W 122°13'0 0.0
2017-Jun-21 12:29N 47°40' W 122°13'0 0.0
2017-Jun-21 11:59N 47°40' W 122°13'0 0.0
2017-Jun-21 11:29N 47°40' W 122°13'0 0.0
2017-Jun-21 11:00N 47°40' W 122°13'0 0.0
2017-Jun-21 10:30N 47°40' W 122°13'0 0.0
2017-Jun-21 10:00N 47°40' W 122°13'0 0.0
2017-Jun-21 09:28N 47°40' W 122°13'0 0.0
2017-Jun-21 08:49N 47°40' W 122°13'0 0.0
2017-Jun-21 08:25N 47°40' W 122°13'0 0.0
2017-Jun-21 07:56N 47°40' W 122°13'0 0.0
2017-Jun-21 07:23N 47°40' W 122°13'0 0.0
2017-Jun-21 06:59N 47°40' W 122°13'0 0.0
2017-Jun-21 06:27N 47°40' W 122°13'0 0.0
2017-Jun-21 05:57N 47°40' W 122°13'0 0.0
2017-Jun-21 05:10N 47°40' W 122°13'0 0.0
2017-Jun-21 04:52N 47°40' W 122°13'0 0.0
2017-Jun-21 04:28N 47°40' W 122°13'0 0.0
2017-Jun-21 03:58N 47°40' W 122°13'0 0.0
2017-Jun-21 03:29N 47°40' W 122°13'0 0.0
2017-Jun-21 02:59N 47°40' W 122°13'0 0.0
2017-Jun-21 02:29N 47°40' W 122°13'0 0.0
2017-Jun-21 01:51N 47°40' W 122°13'0 0.0
2017-Jun-21 01:27N 47°40' W 122°13'0 0.0
2017-Jun-21 01:00N 47°40' W 122°13'0 0.0
2017-Jun-21 00:13N 47°40' W 122°13'0 0.0
2017-Jun-20 23:47N 47°40' W 122°13'0 0.0
2017-Jun-20 22:47N 47°40' W 122°13'0 0.0
2017-Jun-20 22:23N 47°40' W 122°13'0 0.0
2017-Jun-20 21:59N 47°40' W 122°13'0 0.0
2017-Jun-20 21:27N 47°40' W 122°13'0 0.0
2017-Jun-20 21:00N 47°40' W 122°13'0 0.0
2017-Jun-20 20:30N 47°40' W 122°13'0 0.0
2017-Jun-20 19:55N 47°40' W 122°13'0 0.0
2017-Jun-20 19:28N 47°40' W 122°13'0 0.0
2017-Jun-20 18:58N 47°40' W 122°13'0 0.0
2017-Jun-20 18:26N 47°40' W 122°13'0 0.0
2017-Jun-20 17:56N 47°40' W 122°13'0 0.0
2017-Jun-20 17:26N 47°40' W 122°13'0 0.0
2017-Jun-20 17:00N 47°40' W 122°13'0 0.0
2017-Jun-20 16:27N 47°40' W 122°13'0 0.0
2017-Jun-20 15:54N 47°40' W 122°13'0 0.0
2017-Jun-20 15:28N 47°40' W 122°13'0 0.0
2017-Jun-20 14:58N 47°40' W 122°13'0 0.0
2017-Jun-20 14:28N 47°40' W 122°13'0 0.0
2017-Jun-20 13:26N 47°40' W 122°13'0 0.0
2017-Jun-20 12:59N 47°40' W 122°13'0 0.0
2017-Jun-20 12:30N 47°40' W 122°13'0 0.0
2017-Jun-20 12:00N 47°40' W 122°13'0 0.0
2017-Jun-20 11:27N 47°40' W 122°13'0 0.0
2017-Jun-20 10:58N 47°40' W 122°13'0 0.0
2017-Jun-20 10:28N 47°40' W 122°13'0 0.0
2017-Jun-20 09:58N 47°40' W 122°13'0 0.0
2017-Jun-20 09:29N 47°40' W 122°13'0 0.0
2017-Jun-20 08:59N 47°40' W 122°13'0 0.0
2017-Jun-20 08:29N 47°40' W 122°13'0 0.0
2017-Jun-20 08:00N 47°40' W 122°13'0 0.0
2017-Jun-20 07:30N 47°40' W 122°13'0 0.0
2017-Jun-20 07:00N 47°40' W 122°13'0 0.0
2017-Jun-20 06:28N 47°40' W 122°13'0 0.0
2017-Jun-20 05:55N 47°40' W 122°13'0 0.0
2017-Jun-20 05:29N 47°40' W 122°13'0 0.0
2017-Jun-20 04:59N 47°40' W 122°13'0 0.0
2017-Jun-20 04:29N 47°40' W 122°13'0 0.0
2017-Jun-20 03:51N 47°40' W 122°13'0 0.0
2017-Jun-20 03:30N 47°40' W 122°13'0 0.0
2017-Jun-20 02:54N 47°40' W 122°13'0 0.0
2017-Jun-20 02:25N 47°40' W 122°13'0 0.0
2017-Jun-20 01:52N 47°40' W 122°13'0 0.0
2017-Jun-20 01:28N 47°40' W 122°13'0 0.0
2017-Jun-20 00:59N 47°40' W 122°13'0 0.0
2017-Jun-20 00:29N 47°40' W 122°13'0 0.0
2017-Jun-19 23:59N 47°40' W 122°13'0 0.0
2017-Jun-19 23:30N 47°40' W 122°13'0 0.0
2017-Jun-19 23:00N 47°40' W 122°13'0 0.0
2017-Jun-19 22:27N 47°40' W 122°13'0 0.0
2017-Jun-19 22:01N 47°40' W 122°13'0 0.0
2017-Jun-19 21:28N 47°40' W 122°13'0 0.0
2017-Jun-19 20:55N 47°40' W 122°13'0 0.0
2017-Jun-19 20:26N 47°40' W 122°13'0 0.0
2017-Jun-19 19:56N 47°40' W 122°13'0 0.0
2017-Jun-19 19:29N 47°40' W 122°13'0 0.0
2017-Jun-19 18:48N 47°40' W 122°13'0 0.0
2017-Jun-19 18:27N 47°40' W 122°13'0 0.0
2017-Jun-19 17:57N 47°40' W 122°13'0 0.0
2017-Jun-19 17:31N 47°40' W 122°13'0 0.0
2017-Jun-19 16:55N 47°40' W 122°13'0 0.0
2017-Jun-19 16:22N 47°40' W 122°13'0 0.0
2017-Jun-19 15:56N 47°40' W 122°13'0 0.0
2017-Jun-19 15:29N 47°40' W 122°13'0 0.0
2017-Jun-19 14:56N 47°40' W 122°13'0 0.0
2017-Jun-19 14:00N 47°40' W 122°13'0 0.0
2017-Jun-19 13:30N 47°40' W 122°13'0 0.0
2017-Jun-19 12:59N 47°40' W 122°13'0 0.0
2017-Jun-19 12:25N 47°40' W 122°13'0 0.0
2017-Jun-19 11:55N 47°40' W 122°13'0 0.0
2017-Jun-19 11:29N 47°40' W 122°13'0 0.0
2017-Jun-19 10:59N 47°40' W 122°13'0 0.0
2017-Jun-19 10:26N 47°40' W 122°13'0 0.0
2017-Jun-19 10:00N 47°40' W 122°13'0 0.0
2017-Jun-19 09:30N 47°40' W 122°13'0 0.0
2017-Jun-19 09:00N 47°40' W 122°13'0 0.0
2017-Jun-19 08:28N 47°40' W 122°13'0 0.0
2017-Jun-19 07:58N 47°40' W 122°13'0 0.0
2017-Jun-19 07:28N 47°40' W 122°13'0 0.0
2017-Jun-19 06:59N 47°40' W 122°13'0 0.0
2017-Jun-19 06:29N 47°40' W 122°13'0 0.0
2017-Jun-19 05:59N 47°40' W 122°13'0 0.0
2017-Jun-19 05:30N 47°40' W 122°13'0 0.0
2017-Jun-19 04:57N 47°40' W 122°13'0 0.0
2017-Jun-19 03:07N 47°40' W 122°13'0 0.0
2017-Jun-19 02:49N 47°40' W 122°13'0 0.0
2017-Jun-19 02:29N 47°40' W 122°13'0 0.0
2017-Jun-19 01:59N 47°40' W 122°13'0 0.0
2017-Jun-19 01:29N 47°40' W 122°13'0 0.0
2017-Jun-19 01:00N 47°40' W 122°13'0 0.0
2017-Jun-19 00:30N 47°40' W 122°13'0 0.0
2017-Jun-18 23:51N 47°40' W 122°13'0 0.0
2017-Jun-18 23:28N 47°40' W 122°13'0 0.0
2017-Jun-18 22:55N 47°40' W 122°13'0 0.0
2017-Jun-18 22:28N 47°40' W 122°13'1 1.6
2017-Jun-18 22:01N 47°40' W 122°13'3 6.7
2017-Jun-18 21:30N 47°36' W 122°13'3 5.3
2017-Jun-18 21:00N 47°39' W 122°14'2 3.5
2017-Jun-18 20:30N 47°40' W 122°13'0 0.0
2017-Jun-18 20:00N 47°40' W 122°13'0 0.0
2017-Jun-18 19:30N 47°40' W 122°13'0 0.0
2017-Jun-18 18:58N 47°40' W 122°13'0 0.0
2017-Jun-18 18:16N 47°40' W 122°13'0 0.0
2017-Jun-18 17:58N 47°40' W 122°13'0 0.0
2017-Jun-18 17:29N 47°40' W 122°13'0 0.0
2017-Jun-18 16:59N 47°40' W 122°13'0 0.0
2017-Jun-18 16:29N 47°40' W 122°13'0 0.0
2017-Jun-18 16:00N 47°40' W 122°13'0 0.0
2017-Jun-18 15:27N 47°40' W 122°13'0 0.0
2017-Jun-18 15:00N 47°40' W 122°13'0 0.0
2017-Jun-18 13:58N 47°40' W 122°13'0 0.0
2017-Jun-18 13:25N 47°40' W 122°13'0 0.0
2017-Jun-18 12:59N 47°40' W 122°13'0 0.0
2017-Jun-18 12:29N 47°40' W 122°13'0 0.0
2017-Jun-18 11:59N 47°40' W 122°13'0 0.0
2017-Jun-18 11:30N 47°40' W 122°13'0 0.0
2017-Jun-18 11:00N 47°40' W 122°13'0 0.0
2017-Jun-18 10:30N 47°40' W 122°13'0 0.0
2017-Jun-18 09:58N 47°40' W 122°13'0 0.0
2017-Jun-18 09:28N 47°40' W 122°13'0 0.0
2017-Jun-18 08:58N 47°40' W 122°13'0 0.0
2017-Jun-18 08:29N 47°40' W 122°13'0 0.0
2017-Jun-18 07:59N 47°40' W 122°13'0 0.0
2017-Jun-18 07:29N 47°40' W 122°13'0 0.0
2017-Jun-18 07:00N 47°40' W 122°13'0 0.0
2017-Jun-18 06:30N 47°40' W 122°13'0 0.0
2017-Jun-18 05:57N 47°40' W 122°13'0 0.0
2017-Jun-18 05:22N 47°40' W 122°13'0 0.0
2017-Jun-18 04:55N 47°40' W 122°13'0 0.0
2017-Jun-18 04:25N 47°40' W 122°13'0 0.0
2017-Jun-18 03:47N 47°40' W 122°13'0 0.0
2017-Jun-18 03:29N 47°40' W 122°13'0 0.0
2017-Jun-18 02:59N 47°40' W 122°13'0 0.0
2017-Jun-18 02:18N 47°40' W 122°13'0 0.0
2017-Jun-18 01:48N 47°40' W 122°13'0 0.0
2017-Jun-18 01:30N 47°40' W 122°13'0 0.0
2017-Jun-18 00:58N 47°40' W 122°13'0 0.0
2017-Jun-18 00:19N 47°40' W 122°13'0 0.0
2017-Jun-17 23:58N 47°40' W 122°13'0 0.0
2017-Jun-17 23:29N 47°40' W 122°13'0 0.0
2017-Jun-17 22:59N 47°40' W 122°13'0 0.0
2017-Jun-17 22:30N 47°40' W 122°13'0 0.0
2017-Jun-17 22:00N 47°40' W 122°13'3 6.4
2017-Jun-17 21:30N 47°38' W 122°15'0 0.4
2017-Jun-17 21:00N 47°38' W 122°15'3 6.1
2017-Jun-17 20:31N 47°40' W 122°13'0 0.0
2017-Jun-17 20:00N 47°40' W 122°13'0 0.0
2017-Jun-17 19:30N 47°40' W 122°13'0 0.0
2017-Jun-17 18:58N 47°40' W 122°13'0 0.0
2017-Jun-17 18:26N 47°40' W 122°13'0 0.0
2017-Jun-17 17:56N 47°40' W 122°13'0 0.0
2017-Jun-17 17:29N 47°40' W 122°13'0 0.0
2017-Jun-17 17:00N 47°40' W 122°13'0 0.0
2017-Jun-17 16:30N 47°40' W 122°13'0 0.0
2017-Jun-17 16:00N 47°40' W 122°13'0 0.0
2017-Jun-17 15:28N 47°40' W 122°13'0 0.0
2017-Jun-17 14:58N 47°40' W 122°13'0 0.0
2017-Jun-17 13:56N 47°40' W 122°13'0 0.0
2017-Jun-17 13:29N 47°40' W 122°13'0 0.0
2017-Jun-17 12:59N 47°40' W 122°13'0 0.0
2017-Jun-17 12:30N 47°40' W 122°13'0 0.0
2017-Jun-17 12:00N 47°40' W 122°13'0 0.0
2017-Jun-17 11:28N 47°40' W 122°13'0 0.0
2017-Jun-17 10:58N 47°40' W 122°13'0 0.0
2017-Jun-17 10:28N 47°40' W 122°13'0 0.0
2017-Jun-17 09:56N 47°40' W 122°13'0 0.0
2017-Jun-17 09:26N 47°40' W 122°13'0 0.0
2017-Jun-17 09:00N 47°40' W 122°13'0 0.0
2017-Jun-17 08:24N 47°40' W 122°13'0 0.0
2017-Jun-17 08:00N 47°40' W 122°13'0 0.0
2017-Jun-17 07:24N 47°40' W 122°13'0 0.0
2017-Jun-17 07:00N 47°40' W 122°13'0 0.0
2017-Jun-17 06:28N 47°40' W 122°13'0 0.0
2017-Jun-17 05:58N 47°40' W 122°13'0 0.0
2017-Jun-17 05:29N 47°40' W 122°13'0 0.0
2017-Jun-17 04:56N 47°40' W 122°13'0 0.0
2017-Jun-17 04:17N 47°40' W 122°13'0 0.0
2017-Jun-17 04:00N 47°40' W 122°13'0 0.0
2017-Jun-17 03:30N 47°40' W 122°13'0 0.0
2017-Jun-17 02:57N 47°40' W 122°13'0 0.0
2017-Jun-17 02:28N 47°40' W 122°13'0 0.0
2017-Jun-17 01:58N 47°40' W 122°13'0 0.0
2017-Jun-17 01:28N 47°40' W 122°13'0 0.0
2017-Jun-17 00:59N 47°40' W 122°13'0 0.0
2017-Jun-17 00:29N 47°40' W 122°13'0 0.0
2017-Jun-16 23:59N 47°40' W 122°13'0 0.0
2017-Jun-16 23:30N 47°40' W 122°13'0 0.0
2017-Jun-16 22:54N 47°40' W 122°13'0 0.0
2017-Jun-16 22:30N 47°40' W 122°13'0 0.1
2017-Jun-16 22:00N 47°40' W 122°13'2 4.1
2017-Jun-16 21:30N 47°41' W 122°15'2 4.7
2017-Jun-16 21:00N 47°39' W 122°16'2 4.8
2017-Jun-16 20:30N 47°37' W 122°15'1 1.6
2017-Jun-16 20:00N 47°37' W 122°14'2 4.8
2017-Jun-16 19:30N 47°39' W 122°14'2 3.8
2017-Jun-16 19:00N 47°40' W 122°13'0 0.0
2017-Jun-16 18:30N 47°40' W 122°13'  
Track history (hours):
 
Tides and Currents Weather Stations Pressure Air Temp Water Temp Dewpoint Dewpoint Depression Visibility Wind Speed Wind Dir Waves Ship Positions

Lady Mary

Owner: BLACKMAN, JOHN H, SEATTLE, WA. More information available from US FCC via Universal Licensing System and Coast Guard Vessel Documentation Center.

Last reported at 2017-Jun-26 18:29 UTC. Time now 2017-Jun-26 18:57 UTC.
Position N 47°36' W 122°20'.

Length 26 m.

Type: Passenger vessel. MMSI: 367013060.

Date/timePositionNaut miles runAvg speedWind from/ knotsBaromVisibWave heightAir tempDewpointWater temp
2017-Jun-26 18:29N 47°36' W 122°20'0 0.0
2017-Jun-26 18:00N 47°36' W 122°20'0 0.0
2017-Jun-26 17:30N 47°36' W 122°20'0 0.0
2017-Jun-26 17:00N 47°36' W 122°20'0 0.0
2017-Jun-26 16:30N 47°36' W 122°20'0 0.0
2017-Jun-26 16:00N 47°36' W 122°20'2 4.0
2017-Jun-26 15:30N 47°37' W 122°23'4 7.2
2017-Jun-26 15:01N 47°40' W 122°26'2 3.0
2017-Jun-26 14:30N 47°40' W 122°24'3 0.5
2017-Jun-26 08:26N 47°38' W 122°20'0 0.0
2017-Jun-26 08:00N 47°38' W 122°20'0 0.0
2017-Jun-26 07:29N 47°38' W 122°20'0 0.0
2017-Jun-26 07:00N 47°38' W 122°20'0 0.0
2017-Jun-26 06:30N 47°38' W 122°20'0 0.1
2017-Jun-26 06:01N 47°38' W 122°20'0 0.0
2017-Jun-26 05:30N 47°38' W 122°20'2 3.3
2017-Jun-26 05:01N 47°39' W 122°19'3 6.6
2017-Jun-26 04:31N 47°38' W 122°15'2 3.9
2017-Jun-26 04:00N 47°36' W 122°13'3 5.0
2017-Jun-26 03:30N 47°38' W 122°16'3 5.2
2017-Jun-26 03:01N 47°39' W 122°19'2 3.2
2017-Jun-26 02:30N 47°38' W 122°20'0 0.0
2017-Jun-26 02:00N 47°38' W 122°20'0 0.0
2017-Jun-26 01:30N 47°38' W 122°20'0 0.0
2017-Jun-26 01:01N 47°38' W 122°20'0 0.0
2017-Jun-26 00:30N 47°38' W 122°20'0 0.0
2017-Jun-26 00:00N 47°38' W 122°20'1 2.1
2017-Jun-25 23:30N 47°39' W 122°21'1 2.7
2017-Jun-25 23:00N 47°39' W 122°19'4 7.2
2017-Jun-25 22:30N 47°40' W 122°14'1 1.7
2017-Jun-25 22:00N 47°40' W 122°13'3 6.6
2017-Jun-25 21:31N 47°38' W 122°15'1 2.6
2017-Jun-25 21:01N 47°39' W 122°15'2 4.2
2017-Jun-25 20:31N 47°40' W 122°13'0 0.0
2017-Jun-25 20:00N 47°40' W 122°13'0 0.0
2017-Jun-25 19:30N 47°40' W 122°13'0 0.0
2017-Jun-25 18:47N 47°40' W 122°13'0 0.0
2017-Jun-25 18:26N 47°40' W 122°13'0 0.0
2017-Jun-25 17:59N 47°40' W 122°13'0 0.0
2017-Jun-25 17:27N 47°40' W 122°13'0 0.0
2017-Jun-25 16:48N 47°40' W 122°13'0 0.0
2017-Jun-25 16:15N 47°40' W 122°13'0 0.0
2017-Jun-25 15:58N 47°40' W 122°13'0 0.0
2017-Jun-25 15:28N 47°40' W 122°13'0 0.0
2017-Jun-25 14:58N 47°40' W 122°13'0 0.0
2017-Jun-25 14:29N 47°40' W 122°13'0 0.0
2017-Jun-25 13:29N 47°40' W 122°13'0 0.0
2017-Jun-25 12:57N 47°40' W 122°13'0 0.0
2017-Jun-25 12:27N 47°40' W 122°13'0 0.0
2017-Jun-25 12:00N 47°40' W 122°13'0 0.0
2017-Jun-25 11:28N 47°40' W 122°13'0 0.0
2017-Jun-25 10:58N 47°40' W 122°13'0 0.0
2017-Jun-25 10:28N 47°40' W 122°13'0 0.0
2017-Jun-25 09:59N 47°40' W 122°13'0 0.0
2017-Jun-25 09:29N 47°40' W 122°13'0 0.0
2017-Jun-25 08:59N 47°40' W 122°13'0 0.0
2017-Jun-25 08:24N 47°40' W 122°13'0 0.0
2017-Jun-25 08:00N 47°40' W 122°13'0 0.0
2017-Jun-25 07:30N 47°40' W 122°13'0 0.0
2017-Jun-25 06:58N 47°40' W 122°13'0 0.0
2017-Jun-25 06:25N 47°40' W 122°13'0 0.0
2017-Jun-25 05:58N 47°40' W 122°13'0 0.0
2017-Jun-25 03:06N 47°40' W 122°13'0 0.0
2017-Jun-25 03:00N 47°40' W 122°13'0 0.0
2017-Jun-25 02:28N 47°40' W 122°13'0 0.0
2017-Jun-25 01:58N 47°40' W 122°13'0 0.0
2017-Jun-25 01:15N 47°40' W 122°13'0 0.0
2017-Jun-25 00:58N 47°40' W 122°13'0 0.0
2017-Jun-25 00:11N 47°40' W 122°13'0 0.0
2017-Jun-24 23:47N 47°40' W 122°13'0 0.0
2017-Jun-24 23:30N 47°40' W 122°13'0 0.0
2017-Jun-24 23:00N 47°40' W 122°13'0 0.0
2017-Jun-24 22:27N 47°40' W 122°13'0 0.5
2017-Jun-24 22:00N 47°40' W 122°13'4 7.5
2017-Jun-24 21:30N 47°37' W 122°14'2 4.2
2017-Jun-24 21:00N 47°39' W 122°14'2 0.7
2017-Jun-24 18:04N 47°40' W 122°13'0 0.0
2017-Jun-24 17:58N 47°40' W 122°13'0 0.0
2017-Jun-24 17:23N 47°40' W 122°13'0 0.0
2017-Jun-24 15:06N 47°40' W 122°13'0 0.1
2017-Jun-24 15:00N 47°40' W 122°13'0 0.0
2017-Jun-24 13:55N 47°40' W 122°13'0 0.0
2017-Jun-24 13:28N 47°40' W 122°13'0 0.0
2017-Jun-24 12:59N 47°40' W 122°13'0 0.0
2017-Jun-24 12:26N 47°40' W 122°13'0 0.0
2017-Jun-24 12:00N 47°40' W 122°13'0 0.0
2017-Jun-24 11:30N 47°40' W 122°13'0 0.0
2017-Jun-24 10:57N 47°40' W 122°13'0 0.0
2017-Jun-24 10:30N 47°40' W 122°13'0 0.0
2017-Jun-24 10:01N 47°40' W 122°13'0 0.0
2017-Jun-24 09:28N 47°40' W 122°13'0 0.0
2017-Jun-24 08:58N 47°40' W 122°13'0 0.0
2017-Jun-24 08:23N 47°40' W 122°13'0 0.0
2017-Jun-24 07:56N 47°40' W 122°13'0 0.0
2017-Jun-24 07:23N 47°40' W 122°13'0 0.0
2017-Jun-24 06:57N 47°40' W 122°13'0 0.0
2017-Jun-24 02:44N 47°40' W 122°13'0 0.0
2017-Jun-24 02:21N 47°40' W 122°13'0 0.2
2017-Jun-24 02:01N 47°40' W 122°13'0 0.1
2017-Jun-24 01:25N 47°40' W 122°13'0 0.0
2017-Jun-24 00:47N 47°40' W 122°13'0 0.0
2017-Jun-23 22:44N 47°40' W 122°13'0 0.0
2017-Jun-23 22:29N 47°40' W 122°13'1 3.0
2017-Jun-23 22:00N 47°41' W 122°15'3 5.2
2017-Jun-23 21:30N 47°38' W 122°15'2 3.4
2017-Jun-23 21:00N 47°36' W 122°14'3 5.3
2017-Jun-23 20:30N 47°39' W 122°13'1 2.7
2017-Jun-23 19:59N 47°40' W 122°13'0 0.0
2017-Jun-23 19:29N 47°40' W 122°13'0 0.0
2017-Jun-23 19:00N 47°40' W 122°13'0 0.0
2017-Jun-23 18:28N 47°40' W 122°13'0 0.0
2017-Jun-23 18:00N 47°40' W 122°13'0 0.0
2017-Jun-23 17:30N 47°40' W 122°13'0 0.0
2017-Jun-23 16:58N 47°40' W 122°13'0 0.0
2017-Jun-23 16:25N 47°40' W 122°13'0 0.0
2017-Jun-23 15:52N 47°40' W 122°13'0 0.0
2017-Jun-23 15:29N 47°40' W 122°13'0 0.0
2017-Jun-23 14:59N 47°40' W 122°13'0 0.0
2017-Jun-23 14:17N 47°40' W 122°13'0 0.0
2017-Jun-23 13:30N 47°40' W 122°13'0 0.0
2017-Jun-23 12:58N 47°40' W 122°13'0 0.0
2017-Jun-23 12:28N 47°40' W 122°13'0 0.0
2017-Jun-23 11:57N 47°40' W 122°13'0 0.0
2017-Jun-23 11:28N 47°40' W 122°13'0 0.0
2017-Jun-23 10:59N 47°40' W 122°13'0 0.0
2017-Jun-23 10:29N 47°40' W 122°13'0 0.0
2017-Jun-23 09:59N 47°40' W 122°13'0 0.0
2017-Jun-23 09:30N 47°40' W 122°13'0 0.0
2017-Jun-23 09:00N 47°40' W 122°13'0 0.0
2017-Jun-23 08:27N 47°40' W 122°13'0 0.0
2017-Jun-23 07:58N 47°40' W 122°13'0 0.0
2017-Jun-23 07:28N 47°40' W 122°13'0 0.0
2017-Jun-23 06:58N 47°40' W 122°13'0 0.0
2017-Jun-23 06:26N 47°40' W 122°13'0 0.0
2017-Jun-23 05:17N 47°40' W 122°13'0 0.3
2017-Jun-23 04:58N 47°40' W 122°13'4 8.0
2017-Jun-23 04:30N 47°39' W 122°18'2 4.0
2017-Jun-23 03:59N 47°39' W 122°21'0 0.0
2017-Jun-23 03:29N 47°39' W 122°21'1 1.7
2017-Jun-23 03:00N 47°39' W 122°20'3 6.8
2017-Jun-23 02:30N 47°39' W 122°15'2 3.1
2017-Jun-23 01:56N 47°40' W 122°13'1 1.2
2017-Jun-23 01:30N 47°40' W 122°13'4 7.8
2017-Jun-23 01:00N 47°39' W 122°19'1 1.5
2017-Jun-23 00:30N 47°39' W 122°20'3 4.9
2017-Jun-23 00:00N 47°38' W 122°16'2 3.9
2017-Jun-22 23:30N 47°37' W 122°14'2 4.7
2017-Jun-22 23:01N 47°39' W 122°13'2 3.1
2017-Jun-22 22:30N 47°40' W 122°13'0 0.0
2017-Jun-22 22:00N 47°40' W 122°13'0 0.0
2017-Jun-22 21:27N 47°40' W 122°13'0 0.0
2017-Jun-22 20:58N 47°40' W 122°13'0 0.0
2017-Jun-22 20:28N 47°40' W 122°13'0 0.0
2017-Jun-22 20:00N 47°40' W 122°13'0 0.0
2017-Jun-22 19:30N 47°40' W 122°13'0 0.0
2017-Jun-22 19:00N 47°40' W 122°13'0 0.0
2017-Jun-22 18:28N 47°40' W 122°13'0 0.0
2017-Jun-22 17:52N 47°40' W 122°13'0 0.0
2017-Jun-22 17:23N 47°40' W 122°13'0 0.0
2017-Jun-22 16:59N 47°40' W 122°13'0 0.0
2017-Jun-22 16:11N 47°40' W 122°13'0 0.0
2017-Jun-22 15:57N 47°40' W 122°13'0 0.0
2017-Jun-22 15:26N 47°40' W 122°13'0 0.0
2017-Jun-22 14:54N 47°40' W 122°13'0 0.0
2017-Jun-22 14:28N 47°40' W 122°13'0 0.0
2017-Jun-22 13:28N 47°40' W 122°13'0 0.0
2017-Jun-22 12:59N 47°40' W 122°13'0 0.0
2017-Jun-22 12:29N 47°40' W 122°13'0 0.0
2017-Jun-22 11:56N 47°40' W 122°13'0 0.0
2017-Jun-22 11:30N 47°40' W 122°13'0 0.0
2017-Jun-22 11:00N 47°40' W 122°13'0 0.0
2017-Jun-22 10:30N 47°40' W 122°13'0 0.0
2017-Jun-22 09:55N 47°40' W 122°13'0 0.0
2017-Jun-22 09:28N 47°40' W 122°13'0 0.0
2017-Jun-22 08:58N 47°40' W 122°13'0 0.0
2017-Jun-22 08:29N 47°40' W 122°13'0 0.0
2017-Jun-22 07:59N 47°40' W 122°13'0 0.0
2017-Jun-22 07:29N 47°40' W 122°13'0 0.0
2017-Jun-22 07:00N 47°40' W 122°13'0 0.0
2017-Jun-22 06:30N 47°40' W 122°13'0 0.0
2017-Jun-22 06:00N 47°40' W 122°13'0 0.0
2017-Jun-22 05:25N 47°40' W 122°13'0 0.0
2017-Jun-22 04:55N 47°40' W 122°13'0 0.0
2017-Jun-22 04:13N 47°40' W 122°13'0 0.0
2017-Jun-22 03:38N 47°40' W 122°13'0 0.0
2017-Jun-22 03:26N 47°40' W 122°13'0 0.0
2017-Jun-22 02:56N 47°40' W 122°13'0 0.0
2017-Jun-22 02:18N 47°40' W 122°13'0 0.0
2017-Jun-22 01:45N 47°40' W 122°13'0 0.0
2017-Jun-22 01:27N 47°40' W 122°13'0 0.1
2017-Jun-22 01:00N 47°40' W 122°13'4 7.5
2017-Jun-22 00:30N 47°39' W 122°18'1 2.2
2017-Jun-22 00:00N 47°39' W 122°19'3 6.3
2017-Jun-21 23:29N 47°37' W 122°16'1 1.4
2017-Jun-21 23:00N 47°37' W 122°15'3 5.8
2017-Jun-21 22:30N 47°40' W 122°13'1 1.7
2017-Jun-21 21:58N 47°40' W 122°13'0 0.0
2017-Jun-21 21:29N 47°40' W 122°13'0 0.0
2017-Jun-21 20:57N 47°40' W 122°13'0 0.0
2017-Jun-21 20:29N 47°40' W 122°13'0 0.0
2017-Jun-21 19:57N 47°40' W 122°13'0 0.0
2017-Jun-21 19:21N 47°40' W 122°13'0 0.0
2017-Jun-21 18:58N 47°40' W 122°13'0 0.0
2017-Jun-21 18:28N 47°40' W 122°13'0 0.0
2017-Jun-21 17:58N 47°40' W 122°13'0 0.0
2017-Jun-21 17:28N 47°40' W 122°13'0 0.0
2017-Jun-21 16:56N 47°40' W 122°13'0 0.0
2017-Jun-21 16:29N 47°40' W 122°13'0 0.0
2017-Jun-21 15:53N 47°40' W 122°13'0 0.0
2017-Jun-21 15:30N 47°40' W 122°13'0 0.0
2017-Jun-21 15:00N 47°40' W 122°13'0 0.0
2017-Jun-21 14:27N 47°40' W 122°13'0 0.0
2017-Jun-21 13:28N 47°40' W 122°13'0 0.0
2017-Jun-21 12:46N 47°40' W 122°13'0 0.0
2017-Jun-21 12:29N 47°40' W 122°13'0 0.0
2017-Jun-21 11:59N 47°40' W 122°13'0 0.0
2017-Jun-21 11:29N 47°40' W 122°13'0 0.0
2017-Jun-21 11:00N 47°40' W 122°13'0 0.0
2017-Jun-21 10:30N 47°40' W 122°13'0 0.0
2017-Jun-21 10:00N 47°40' W 122°13'0 0.0
2017-Jun-21 09:28N 47°40' W 122°13'0 0.0
2017-Jun-21 08:49N 47°40' W 122°13'0 0.0
2017-Jun-21 08:25N 47°40' W 122°13'0 0.0
2017-Jun-21 07:56N 47°40' W 122°13'0 0.0
2017-Jun-21 07:23N 47°40' W 122°13'0 0.0
2017-Jun-21 06:59N 47°40' W 122°13'0 0.0
2017-Jun-21 06:27N 47°40' W 122°13'0 0.0
2017-Jun-21 05:57N 47°40' W 122°13'0 0.0
2017-Jun-21 05:10N 47°40' W 122°13'0 0.0
2017-Jun-21 04:52N 47°40' W 122°13'0 0.0
2017-Jun-21 04:28N 47°40' W 122°13'0 0.0
2017-Jun-21 03:58N 47°40' W 122°13'0 0.0
2017-Jun-21 03:29N 47°40' W 122°13'0 0.0
2017-Jun-21 02:59N 47°40' W 122°13'0 0.0
2017-Jun-21 02:29N 47°40' W 122°13'0 0.0
2017-Jun-21 01:51N 47°40' W 122°13'0 0.0
2017-Jun-21 01:27N 47°40' W 122°13'0 0.0
2017-Jun-21 01:00N 47°40' W 122°13'0 0.0
2017-Jun-21 00:13N 47°40' W 122°13'0 0.0
2017-Jun-20 23:47N 47°40' W 122°13'0 0.0
2017-Jun-20 22:47N 47°40' W 122°13'0 0.0
2017-Jun-20 22:23N 47°40' W 122°13'0 0.0
2017-Jun-20 21:59N 47°40' W 122°13'0 0.0
2017-Jun-20 21:27N 47°40' W 122°13'0 0.0
2017-Jun-20 21:00N 47°40' W 122°13'0 0.0
2017-Jun-20 20:30N 47°40' W 122°13'0 0.0
2017-Jun-20 19:55N 47°40' W 122°13'0 0.0
2017-Jun-20 19:28N 47°40' W 122°13'0 0.0
2017-Jun-20 18:58N 47°40' W 122°13'0 0.0
2017-Jun-20 18:26N 47°40' W 122°13'0 0.0
2017-Jun-20 17:56N 47°40' W 122°13'0 0.0
2017-Jun-20 17:26N 47°40' W 122°13'0 0.0
2017-Jun-20 17:00N 47°40' W 122°13'0 0.0
2017-Jun-20 16:27N 47°40' W 122°13'0 0.0
2017-Jun-20 15:54N 47°40' W 122°13'0 0.0
2017-Jun-20 15:28N 47°40' W 122°13'0 0.0
2017-Jun-20 14:58N 47°40' W 122°13'0 0.0
2017-Jun-20 14:28N 47°40' W 122°13'0 0.0
2017-Jun-20 13:26N 47°40' W 122°13'0 0.0
2017-Jun-20 12:59N 47°40' W 122°13'0 0.0
2017-Jun-20 12:30N 47°40' W 122°13'0 0.0
2017-Jun-20 12:00N 47°40' W 122°13'0 0.0
2017-Jun-20 11:27N 47°40' W 122°13'0 0.0
2017-Jun-20 10:58N 47°40' W 122°13'0 0.0
2017-Jun-20 10:28N 47°40' W 122°13'0 0.0
2017-Jun-20 09:58N 47°40' W 122°13'0 0.0
2017-Jun-20 09:29N 47°40' W 122°13'0 0.0
2017-Jun-20 08:59N 47°40' W 122°13'0 0.0
2017-Jun-20 08:29N 47°40' W 122°13'0 0.0
2017-Jun-20 08:00N 47°40' W 122°13'0 0.0
2017-Jun-20 07:30N 47°40' W 122°13'0 0.0
2017-Jun-20 07:00N 47°40' W 122°13'0 0.0
2017-Jun-20 06:28N 47°40' W 122°13'0 0.0
2017-Jun-20 05:55N 47°40' W 122°13'0 0.0
2017-Jun-20 05:29N 47°40' W 122°13'0 0.0
2017-Jun-20 04:59N 47°40' W 122°13'0 0.0
2017-Jun-20 04:29N 47°40' W 122°13'0 0.0
2017-Jun-20 03:51N 47°40' W 122°13'0 0.0
2017-Jun-20 03:30N 47°40' W 122°13'0 0.0
2017-Jun-20 02:54N 47°40' W 122°13'0 0.0
2017-Jun-20 02:25N 47°40' W 122°13'0 0.0
2017-Jun-20 01:52N 47°40' W 122°13'0 0.0
2017-Jun-20 01:28N 47°40' W 122°13'0 0.0
2017-Jun-20 00:59N 47°40' W 122°13'0 0.0
2017-Jun-20 00:29N 47°40' W 122°13'0 0.0
2017-Jun-19 23:59N 47°40' W 122°13'0 0.0
2017-Jun-19 23:30N 47°40' W 122°13'0 0.0
2017-Jun-19 23:00N 47°40' W 122°13'0 0.0
2017-Jun-19 22:27N 47°40' W 122°13'0 0.0
2017-Jun-19 22:01N 47°40' W 122°13'0 0.0
2017-Jun-19 21:28N 47°40' W 122°13'0 0.0
2017-Jun-19 20:55N 47°40' W 122°13'0 0.0
2017-Jun-19 20:26N 47°40' W 122°13'0 0.0
2017-Jun-19 19:56N 47°40' W 122°13'0 0.0
2017-Jun-19 19:29N 47°40' W 122°13'0 0.0
2017-Jun-19 18:48N 47°40' W 122°13'0 0.0
2017-Jun-19 18:27N 47°40' W 122°13'0 0.0
2017-Jun-19 17:57N 47°40' W 122°13'0 0.0
2017-Jun-19 17:31N 47°40' W 122°13'0 0.0
2017-Jun-19 16:55N 47°40' W 122°13'0 0.0
2017-Jun-19 16:22N 47°40' W 122°13'0 0.0
2017-Jun-19 15:56N 47°40' W 122°13'0 0.0
2017-Jun-19 15:29N 47°40' W 122°13'0 0.0
2017-Jun-19 14:56N 47°40' W 122°13'0 0.0
2017-Jun-19 14:00N 47°40' W 122°13'0 0.0
2017-Jun-19 13:30N 47°40' W 122°13'0 0.0
2017-Jun-19 12:59N 47°40' W 122°13'0 0.0
2017-Jun-19 12:25N 47°40' W 122°13'0 0.0
2017-Jun-19 11:55N 47°40' W 122°13'0 0.0
2017-Jun-19 11:29N 47°40' W 122°13'0 0.0
2017-Jun-19 10:59N 47°40' W 122°13'0 0.0
2017-Jun-19 10:26N 47°40' W 122°13'0 0.0
2017-Jun-19 10:00N 47°40' W 122°13'0 0.0
2017-Jun-19 09:30N 47°40' W 122°13'0 0.0
2017-Jun-19 09:00N 47°40' W 122°13'0 0.0
2017-Jun-19 08:28N 47°40' W 122°13'0 0.0
2017-Jun-19 07:58N 47°40' W 122°13'0 0.0
2017-Jun-19 07:28N 47°40' W 122°13'0 0.0
2017-Jun-19 06:59N 47°40' W 122°13'0 0.0
2017-Jun-19 06:29N 47°40' W 122°13'0 0.0
2017-Jun-19 05:59N 47°40' W 122°13'0 0.0
2017-Jun-19 05:30N 47°40' W 122°13'0 0.0
2017-Jun-19 04:57N 47°40' W 122°13'0 0.0
2017-Jun-19 03:07N 47°40' W 122°13'0 0.0
2017-Jun-19 02:49N 47°40' W 122°13'0 0.0
2017-Jun-19 02:29N 47°40' W 122°13'0 0.0
2017-Jun-19 01:59N 47°40' W 122°13'0 0.0
2017-Jun-19 01:29N 47°40' W 122°13'0 0.0
2017-Jun-19 01:00N 47°40' W 122°13'0 0.0
2017-Jun-19 00:30N 47°40' W 122°13'0 0.0
2017-Jun-18 23:51N 47°40' W 122°13'0 0.0
2017-Jun-18 23:28N 47°40' W 122°13'0 0.0
2017-Jun-18 22:55N 47°40' W 122°13'0 0.0
2017-Jun-18 22:28N 47°40' W 122°13'1 1.6
2017-Jun-18 22:01N 47°40' W 122°13'3 6.7
2017-Jun-18 21:30N 47°36' W 122°13'3 5.3
2017-Jun-18 21:00N 47°39' W 122°14'2 3.5
2017-Jun-18 20:30N 47°40' W 122°13'0 0.0
2017-Jun-18 20:00N 47°40' W 122°13'0 0.0
2017-Jun-18 19:30N 47°40' W 122°13'0 0.0
2017-Jun-18 18:58N 47°40' W 122°13'0 0.0
2017-Jun-18 18:16N 47°40' W 122°13'0 0.0
2017-Jun-18 17:58N 47°40' W 122°13'0 0.0
2017-Jun-18 17:29N 47°40' W 122°13'0 0.0
2017-Jun-18 16:59N 47°40' W 122°13'0 0.0
2017-Jun-18 16:29N 47°40' W 122°13'0 0.0
2017-Jun-18 16:00N 47°40' W 122°13'0 0.0
2017-Jun-18 15:27N 47°40' W 122°13'0 0.0
2017-Jun-18 15:00N 47°40' W 122°13'0 0.0
2017-Jun-18 13:58N 47°40' W 122°13'0 0.0
2017-Jun-18 13:25N 47°40' W 122°13'0 0.0
2017-Jun-18 12:59N 47°40' W 122°13'0 0.0
2017-Jun-18 12:29N 47°40' W 122°13'0 0.0
2017-Jun-18 11:59N 47°40' W 122°13'0 0.0
2017-Jun-18 11:30N 47°40' W 122°13'0 0.0
2017-Jun-18 11:00N 47°40' W 122°13'0 0.0
2017-Jun-18 10:30N 47°40' W 122°13'0 0.0
2017-Jun-18 09:58N 47°40' W 122°13'0 0.0
2017-Jun-18 09:28N 47°40' W 122°13'0 0.0
2017-Jun-18 08:58N 47°40' W 122°13'0 0.0
2017-Jun-18 08:29N 47°40' W 122°13'0 0.0
2017-Jun-18 07:59N 47°40' W 122°13'0 0.0
2017-Jun-18 07:29N 47°40' W 122°13'0 0.0
2017-Jun-18 07:00N 47°40' W 122°13'0 0.0
2017-Jun-18 06:30N 47°40' W 122°13'0 0.0
2017-Jun-18 05:57N 47°40' W 122°13'0 0.0
2017-Jun-18 05:22N 47°40' W 122°13'0 0.0
2017-Jun-18 04:55N 47°40' W 122°13'0 0.0
2017-Jun-18 04:25N 47°40' W 122°13'0 0.0
2017-Jun-18 03:47N 47°40' W 122°13'0 0.0
2017-Jun-18 03:29N 47°40' W 122°13'0 0.0
2017-Jun-18 02:59N 47°40' W 122°13'0 0.0
2017-Jun-18 02:18N 47°40' W 122°13'0 0.0
2017-Jun-18 01:48N 47°40' W 122°13'0 0.0
2017-Jun-18 01:30N 47°40' W 122°13'0 0.0
2017-Jun-18 00:58N 47°40' W 122°13'0 0.0
2017-Jun-18 00:19N 47°40' W 122°13'0 0.0
2017-Jun-17 23:58N 47°40' W 122°13'0 0.0
2017-Jun-17 23:29N 47°40' W 122°13'0 0.0
2017-Jun-17 22:59N 47°40' W 122°13'0 0.0
2017-Jun-17 22:30N 47°40' W 122°13'0 0.0
2017-Jun-17 22:00N 47°40' W 122°13'3 6.4
2017-Jun-17 21:30N 47°38' W 122°15'0 0.4
2017-Jun-17 21:00N 47°38' W 122°15'3 6.1
2017-Jun-17 20:31N 47°40' W 122°13'0 0.0
2017-Jun-17 20:00N 47°40' W 122°13'0 0.0
2017-Jun-17 19:30N 47°40' W 122°13'0 0.0
2017-Jun-17 18:58N 47°40' W 122°13'0 0.0
2017-Jun-17 18:26N 47°40' W 122°13'0 0.0
2017-Jun-17 17:56N 47°40' W 122°13'0 0.0
2017-Jun-17 17:29N 47°40' W 122°13'0 0.0
2017-Jun-17 17:00N 47°40' W 122°13'0 0.0
2017-Jun-17 16:30N 47°40' W 122°13'0 0.0
2017-Jun-17 16:00N 47°40' W 122°13'0 0.0
2017-Jun-17 15:28N 47°40' W 122°13'0 0.0
2017-Jun-17 14:58N 47°40' W 122°13'0 0.0
2017-Jun-17 13:56N 47°40' W 122°13'0 0.0
2017-Jun-17 13:29N 47°40' W 122°13'0 0.0
2017-Jun-17 12:59N 47°40' W 122°13'0 0.0
2017-Jun-17 12:30N 47°40' W 122°13'0 0.0
2017-Jun-17 12:00N 47°40' W 122°13'0 0.0
2017-Jun-17 11:28N 47°40' W 122°13'0 0.0
2017-Jun-17 10:58N 47°40' W 122°13'0 0.0
2017-Jun-17 10:28N 47°40' W 122°13'0 0.0
2017-Jun-17 09:56N 47°40' W 122°13'0 0.0
2017-Jun-17 09:26N 47°40' W 122°13'0 0.0
2017-Jun-17 09:00N 47°40' W 122°13'0 0.0
2017-Jun-17 08:24N 47°40' W 122°13'0 0.0
2017-Jun-17 08:00N 47°40' W 122°13'0 0.0
2017-Jun-17 07:24N 47°40' W 122°13'0 0.0
2017-Jun-17 07:00N 47°40' W 122°13'0 0.0
2017-Jun-17 06:28N 47°40' W 122°13'0 0.0
2017-Jun-17 05:58N 47°40' W 122°13'0 0.0
2017-Jun-17 05:29N 47°40' W 122°13'0 0.0
2017-Jun-17 04:56N 47°40' W 122°13'0 0.0
2017-Jun-17 04:17N 47°40' W 122°13'0 0.0
2017-Jun-17 04:00N 47°40' W 122°13'0 0.0
2017-Jun-17 03:30N 47°40' W 122°13'0 0.0
2017-Jun-17 02:57N 47°40' W 122°13'0 0.0
2017-Jun-17 02:28N 47°40' W 122°13'0 0.0
2017-Jun-17 01:58N 47°40' W 122°13'0 0.0
2017-Jun-17 01:28N 47°40' W 122°13'0 0.0
2017-Jun-17 00:59N 47°40' W 122°13'0 0.0
2017-Jun-17 00:29N 47°40' W 122°13'0 0.0
2017-Jun-16 23:59N 47°40' W 122°13'0 0.0
2017-Jun-16 23:30N 47°40' W 122°13'0 0.0
2017-Jun-16 22:54N 47°40' W 122°13'0 0.0
2017-Jun-16 22:30N 47°40' W 122°13'0 0.1
2017-Jun-16 22:00N 47°40' W 122°13'2 4.1
2017-Jun-16 21:30N 47°41' W 122°15'2 4.7
2017-Jun-16 21:00N 47°39' W 122°16'2 4.8
2017-Jun-16 20:30N 47°37' W 122°15'1 1.6
2017-Jun-16 20:00N 47°37' W 122°14'2 4.8
2017-Jun-16 19:30N 47°39' W 122°14'2 3.8
2017-Jun-16 19:00N 47°40' W 122°13'0 0.0
2017-Jun-16 18:30N 47°40' W 122°13'  

Dump ship's entire track history